createdAt,value
2023-10-28T05:00:43.216Z,98.14
2023-10-28T05:01:43.126Z,97.53
2023-10-28T05:02:43.092Z,97.83
2023-10-28T05:03:43.077Z,97.94
2023-10-28T05:04:43.064Z,98.70
2023-10-28T05:05:43.029Z,98.29
2023-10-28T05:06:43.048Z,97.83
2023-10-28T05:07:43.020Z,97.94
2023-10-28T05:08:42.991Z,97.57
2023-10-28T05:09:43.003Z,97.74
2023-10-28T05:10:42.999Z,98.08
2023-10-28T05:11:48.022Z,97.67
2023-10-28T05:12:42.957Z,97.67
2023-10-28T05:13:42.959Z,98.29
2023-10-28T05:14:42.944Z,97.67
2023-10-28T05:15:42.913Z,97.94
2023-10-28T05:16:43.039Z,97.74
2023-10-28T05:17:42.910Z,97.88
2023-10-28T05:18:42.887Z,97.88
2023-10-28T05:19:42.875Z,97.98
2023-10-28T05:20:42.886Z,98.19
2023-10-28T05:21:42.861Z,97.98
2023-10-28T05:22:47.870Z,97.88
2023-10-28T05:23:42.834Z,97.78
2023-10-28T05:24:42.812Z,97.88
2023-10-28T05:25:42.825Z,97.57
2023-10-28T05:26:42.821Z,97.57
2023-10-28T05:27:42.794Z,97.27
2023-10-28T05:28:42.768Z,97.53
2023-10-28T05:29:42.773Z,96.86
2023-10-28T05:30:42.756Z,96.66
2023-10-28T05:31:42.774Z,96.75
2023-10-28T05:32:42.879Z,96.61
2023-10-28T05:33:47.737Z,96.96
2023-10-28T05:34:42.709Z,97.02
2023-10-28T05:35:42.700Z,97.16
2023-10-28T05:36:42.680Z,96.96
2023-10-28T05:37:42.670Z,96.81
2023-10-28T05:38:42.700Z,97.02
2023-10-28T05:39:42.658Z,96.86
2023-10-28T05:40:42.649Z,96.96
2023-10-28T05:41:42.626Z,96.00
2023-10-28T05:42:42.624Z,96.10
2023-10-28T05:43:42.602Z,96.20
2023-10-28T05:44:47.644Z,96.20
2023-10-28T05:45:42.596Z,95.69
2023-10-28T05:46:42.570Z,95.48
2023-10-28T05:47:42.596Z,95.48
2023-10-28T05:48:42.656Z,95.59
2023-10-28T05:49:42.582Z,95.59
2023-10-28T05:50:42.560Z,95.59
2023-10-28T05:51:42.528Z,95.59
2023-10-28T05:52:42.503Z,95.48
2023-10-28T05:53:42.498Z,95.38
2023-10-28T05:54:42.489Z,95.59
2023-10-28T05:55:47.527Z,95.59
2023-10-28T05:56:42.484Z,95.59
2023-10-28T05:57:42.453Z,95.38
2023-10-28T05:58:42.458Z,95.79
2023-10-28T05:59:42.433Z,95.69
2023-10-28T06:00:42.412Z,96.00
2023-10-28T06:01:42.417Z,95.59
2023-10-28T06:02:42.469Z,94.93
2023-10-28T06:03:42.447Z,95.07
2023-10-28T06:04:42.389Z,94.73
2023-10-28T06:05:42.361Z,95.18
2023-10-28T06:06:47.365Z,94.97
2023-10-28T06:07:43.538Z,94.87
2023-10-28T06:08:42.346Z,94.93
2023-10-28T06:09:42.311Z,94.97
2023-10-28T06:10:42.297Z,94.93
2023-10-28T06:11:42.292Z,95.18
2023-10-28T06:12:42.289Z,94.73
2023-10-28T06:13:42.275Z,94.26
2023-10-28T06:14:42.292Z,94.26
2023-10-28T06:15:42.248Z,94.32
2023-10-28T06:16:42.280Z,94.32
2023-10-28T06:17:47.285Z,94.21
2023-10-28T06:18:42.218Z,94.21
2023-10-28T06:19:42.211Z,94.21
2023-10-28T06:20:42.219Z,94.32
2023-10-28T06:21:42.180Z,94.11
2023-10-28T06:22:42.182Z,93.91
2023-10-28T06:23:42.152Z,93.70
2023-10-28T06:24:42.152Z,93.60
2023-10-28T06:25:42.133Z,93.80
2023-10-28T06:26:42.170Z,93.80
2023-10-28T06:27:42.251Z,93.70
2023-10-28T06:28:47.154Z,93.70
2023-10-28T06:29:42.122Z,93.70
2023-10-28T06:30:42.112Z,93.50
2023-10-28T06:31:42.078Z,93.09
2023-10-28T06:32:42.085Z,92.84
2023-10-28T06:33:42.043Z,93.19
2023-10-28T06:34:42.030Z,92.84
2023-10-28T06:35:42.046Z,92.88
2023-10-28T06:36:42.122Z,93.29
2023-10-28T06:37:42.007Z,92.68
2023-10-28T06:38:41.982Z,92.99
2023-10-28T06:39:47.253Z,92.94
2023-10-28T06:40:41.960Z,93.05
2023-10-28T06:41:41.988Z,92.23
2023-10-28T06:42:41.940Z,92.33
2023-10-28T06:43:41.937Z,91.92
2023-10-28T06:44:41.922Z,91.82
2023-10-28T06:45:41.933Z,92.13
2023-10-28T06:46:41.909Z,92.74
2023-10-28T06:47:41.966Z,92.78
2023-10-28T06:48:41.873Z,93.05
2023-10-28T06:49:41.861Z,92.13
2023-10-28T06:50:46.879Z,92.33
2023-10-28T06:51:41.905Z,92.27
2023-10-28T06:52:41.951Z,91.82
2023-10-28T06:53:41.847Z,92.23
2023-10-28T06:54:41.807Z,92.54
2023-10-28T06:55:41.804Z,92.54
2023-10-28T06:56:41.780Z,92.02
2023-10-28T06:57:41.775Z,92.23
2023-10-28T06:58:41.765Z,91.92
2023-10-28T06:59:41.847Z,92.54
2023-10-28T07:00:41.746Z,92.54
2023-10-28T07:01:46.788Z,92.64
2023-10-28T07:02:41.723Z,91.82
2023-10-28T07:03:41.822Z,92.07
2023-10-28T07:04:41.702Z,91.61
2023-10-28T07:05:41.746Z,92.02
2023-10-28T07:06:41.673Z,91.82
2023-10-28T07:07:41.661Z,91.61
2023-10-28T07:08:41.766Z,92.13
2023-10-28T07:09:41.662Z,91.92
2023-10-28T07:10:41.630Z,91.72
2023-10-28T07:11:41.642Z,92.02
2023-10-28T07:12:46.629Z,91.82
2023-10-28T07:13:41.592Z,91.82
2023-10-28T07:14:41.587Z,91.31
2023-10-28T07:15:41.569Z,91.31
2023-10-28T07:16:41.586Z,91.00
2023-10-28T07:17:41.641Z,91.00
2023-10-28T07:18:41.552Z,91.31
2023-10-28T07:19:41.535Z,91.00
2023-10-28T07:20:41.546Z,91.52
2023-10-28T07:21:41.502Z,91.52
2023-10-28T07:22:41.489Z,91.72
2023-10-28T07:23:46.584Z,92.23
2023-10-28T07:24:41.470Z,91.82
2023-10-28T07:25:41.457Z,92.23
2023-10-28T07:26:41.444Z,92.54
2023-10-28T07:27:41.442Z,92.54
2023-10-28T07:28:41.439Z,92.02
2023-10-28T07:29:41.462Z,93.05
2023-10-28T07:30:41.404Z,92.74
2023-10-28T07:31:41.395Z,93.05
2023-10-28T07:32:41.436Z,92.84
2023-10-28T07:33:41.379Z,92.74
2023-10-28T07:34:46.376Z,92.64
2023-10-28T07:35:41.357Z,92.43
2023-10-28T07:36:41.332Z,91.92
2023-10-28T07:37:41.354Z,92.54
2023-10-28T07:38:41.411Z,92.02
2023-10-28T07:39:41.420Z,92.84
2023-10-28T07:40:41.295Z,92.74
2023-10-28T07:41:41.338Z,92.13
2023-10-28T07:42:41.283Z,91.72
2023-10-28T07:43:41.267Z,91.82
2023-10-28T07:44:41.242Z,91.67
2023-10-28T07:45:46.259Z,91.57
2023-10-28T07:46:41.300Z,91.27
2023-10-28T07:47:41.281Z,91.27
2023-10-28T07:48:41.249Z,91.37
2023-10-28T07:49:41.188Z,91.78
2023-10-28T07:50:41.175Z,90.96
2023-10-28T07:51:41.181Z,91.27
2023-10-28T07:52:41.192Z,91.06
2023-10-28T07:53:41.155Z,91.06
2023-10-28T07:54:41.166Z,91.06
2023-10-28T07:55:41.242Z,91.16
2023-10-28T07:56:46.134Z,91.06
2023-10-28T07:57:41.106Z,90.96
2023-10-28T07:58:41.094Z,90.45
2023-10-28T07:59:41.087Z,91.16
2023-10-28T08:00:41.118Z,91.16
2023-10-28T08:01:41.148Z,91.37
2023-10-28T08:02:41.072Z,90.86
2023-10-28T08:03:41.161Z,90.96
2023-10-28T08:04:41.024Z,91.67
2023-10-28T08:05:41.009Z,91.47
2023-10-28T08:06:41.026Z,91.37
2023-10-28T08:07:46.018Z,91.47
2023-10-28T08:08:40.975Z,91.37
2023-10-28T08:09:40.974Z,91.88
2023-10-28T08:10:40.951Z,92.08
2023-10-28T08:11:41.056Z,92.90
2023-10-28T08:12:41.063Z,92.19
2023-10-28T08:13:40.934Z,91.47
2023-10-28T08:14:40.932Z,91.41
2023-10-28T08:15:40.898Z,91.82
2023-10-28T08:16:40.903Z,91.78
2023-10-28T08:17:40.946Z,91.57
2023-10-28T08:18:45.887Z,91.16
2023-10-28T08:19:40.866Z,91.47
2023-10-28T08:20:40.848Z,91.47
2023-10-28T08:21:40.858Z,91.78
2023-10-28T08:22:40.830Z,91.57
2023-10-28T08:23:40.810Z,91.67
2023-10-28T08:24:40.803Z,91.43
2023-10-28T08:25:40.805Z,91.63
2023-10-28T08:26:40.787Z,91.67
2023-10-28T08:27:40.886Z,92.69
2023-10-28T08:28:40.757Z,91.78
2023-10-28T08:29:45.944Z,91.22
2023-10-28T08:30:40.783Z,91.33
2023-10-28T08:31:40.728Z,90.96
2023-10-28T08:32:40.763Z,91.12
2023-10-28T08:33:40.696Z,90.41
2023-10-28T08:34:40.686Z,89.79
2023-10-28T08:35:40.676Z,90.00
2023-10-28T08:36:40.691Z,90.06
2023-10-28T08:37:40.660Z,89.65
2023-10-28T08:38:40.647Z,90.06
2023-10-28T08:39:40.700Z,90.57
2023-10-28T08:40:45.665Z,89.04
2023-10-28T08:41:40.647Z,88.84
2023-10-28T08:42:40.604Z,88.93
2023-10-28T08:43:41.987Z,88.43
2023-10-28T08:44:40.578Z,87.77
2023-10-28T08:45:40.641Z,88.18
2023-10-28T08:46:40.611Z,88.08
2023-10-28T08:47:40.566Z,88.59
2023-10-28T08:48:40.532Z,88.39
2023-10-28T08:49:40.527Z,88.28
2023-10-28T08:50:40.521Z,87.88
2023-10-28T08:51:45.590Z,87.98
2023-10-28T08:52:40.489Z,88.08
2023-10-28T08:53:40.475Z,87.37
2023-10-28T08:54:40.477Z,87.67
2023-10-28T08:55:40.469Z,87.77
2023-10-28T08:56:40.442Z,87.67
2023-10-28T08:57:40.427Z,87.47
2023-10-28T08:58:40.439Z,87.06
2023-10-28T08:59:40.433Z,87.02
2023-10-28T09:00:40.460Z,87.37
2023-10-28T09:01:40.390Z,86.96
2023-10-28T09:02:45.402Z,87.06
2023-10-28T09:03:40.393Z,87.23
2023-10-28T09:04:40.420Z,87.23
2023-10-28T09:05:40.348Z,87.12
2023-10-28T09:06:40.333Z,87.23
2023-10-28T09:07:40.314Z,86.37
2023-10-28T09:08:40.306Z,85.82
2023-10-28T09:09:40.312Z,84.86
2023-10-28T09:10:40.357Z,84.45
2023-10-28T09:11:40.271Z,84.80
2023-10-28T09:12:40.306Z,84.94
2023-10-28T09:13:45.269Z,85.25
2023-10-28T09:14:40.236Z,85.45
2023-10-28T09:15:40.430Z,85.41
2023-10-28T09:16:40.250Z,85.72
2023-10-28T09:17:40.245Z,85.11
2023-10-28T09:18:40.221Z,84.86
2023-10-28T09:19:40.179Z,84.05
2023-10-28T09:20:40.180Z,83.20
2023-10-28T09:21:40.160Z,83.36
2023-10-28T09:22:40.195Z,82.10
2023-10-28T09:23:40.141Z,80.91
2023-10-28T09:24:45.162Z,79.63
2023-10-28T09:25:40.129Z,79.49
2023-10-28T09:26:40.125Z,80.33
2023-10-28T09:27:40.121Z,80.40
2023-10-28T09:28:40.109Z,80.40
2023-10-28T09:29:40.083Z,80.50
2023-10-28T09:30:40.066Z,79.59
2023-10-28T09:31:40.083Z,79.93
2023-10-28T09:32:40.114Z,80.24
2023-10-28T09:33:40.127Z,80.13
2023-10-28T09:34:40.064Z,80.24
2023-10-28T09:35:45.067Z,80.17
2023-10-28T09:36:40.032Z,80.98
2023-10-28T09:37:40.070Z,81.29
2023-10-28T09:38:40.002Z,81.59
2023-10-28T09:39:39.978Z,81.39
2023-10-28T09:40:39.954Z,81.84
2023-10-28T09:41:39.944Z,81.79
2023-10-28T09:42:39.931Z,81.29
2023-10-28T09:43:39.968Z,81.49
2023-10-28T09:44:39.905Z,80.33
2023-10-28T09:45:39.896Z,80.30
2023-10-28T09:46:44.951Z,78.74
2023-10-28T09:47:39.981Z,78.94
2023-10-28T09:48:39.871Z,79.25
2023-10-28T09:49:39.901Z,78.53
2023-10-28T09:50:39.843Z,78.64
2023-10-28T09:51:39.823Z,78.74
2023-10-28T09:52:39.814Z,79.08
2023-10-28T09:53:39.807Z,78.37
2023-10-28T09:54:39.793Z,78.53
2023-10-28T09:55:39.777Z,79.14
2023-10-28T09:56:39.792Z,79.08
2023-10-28T09:57:44.794Z,78.88
2023-10-28T09:58:39.754Z,79.28
2023-10-28T09:59:39.733Z,79.18
2023-10-28T10:00:39.731Z,79.18
2023-10-28T10:01:39.733Z,78.98
2023-10-28T10:02:39.758Z,78.61
2023-10-28T10:03:39.726Z,79.28
2023-10-28T10:04:39.715Z,78.78
2023-10-28T10:05:39.663Z,79.18
2023-10-28T10:06:39.652Z,78.88
2023-10-28T10:07:39.658Z,79.38
2023-10-28T10:08:44.736Z,79.49
2023-10-28T10:09:39.619Z,79.69
2023-10-28T10:10:39.717Z,79.28
2023-10-28T10:11:39.598Z,79.28
2023-10-28T10:12:39.615Z,78.37
2023-10-28T10:13:39.615Z,79.38
2023-10-28T10:14:39.568Z,79.79
2023-10-28T10:15:39.563Z,78.78
2023-10-28T10:16:39.583Z,78.88
2023-10-28T10:17:39.613Z,78.78
2023-10-28T10:18:39.564Z,78.27
2023-10-28T10:19:44.543Z,78.98
2023-10-28T10:20:39.510Z,78.88
2023-10-28T10:21:39.547Z,79.08
2023-10-28T10:22:39.481Z,79.08
2023-10-28T10:23:39.461Z,78.57
2023-10-28T10:24:39.452Z,78.88
2023-10-28T10:25:39.436Z,79.08
2023-10-28T10:26:39.434Z,79.08
2023-10-28T10:27:39.508Z,79.18
2023-10-28T10:28:39.403Z,78.37
2023-10-28T10:29:39.390Z,78.91
2023-10-28T10:30:45.071Z,78.61
2023-10-28T10:31:39.395Z,78.88
2023-10-28T10:32:39.393Z,78.78
2023-10-28T10:33:39.401Z,78.67
2023-10-28T10:34:39.360Z,78.37
2023-10-28T10:35:39.335Z,78.30
2023-10-28T10:36:39.334Z,78.17
2023-10-28T10:37:39.312Z,78.06
2023-10-28T10:38:39.291Z,78.47
2023-10-28T10:39:39.286Z,78.17
2023-10-28T10:40:39.274Z,77.66
2023-10-28T10:41:44.300Z,78.00
2023-10-28T10:42:39.246Z,78.06
2023-10-28T10:43:39.240Z,78.37
2023-10-28T10:44:39.756Z,77.86
2023-10-28T10:45:39.269Z,78.47
2023-10-28T10:46:39.215Z,77.97
2023-10-28T10:47:39.273Z,77.86
2023-10-28T10:48:39.744Z,77.76
2023-10-28T10:49:39.169Z,77.15
2023-10-28T10:50:39.283Z,77.56
2023-10-28T10:51:39.197Z,77.56
2023-10-28T10:52:44.156Z,77.36
2023-10-28T10:53:39.119Z,77.66
2023-10-28T10:54:39.115Z,78.06
2023-10-28T10:55:39.122Z,78.06
2023-10-28T10:56:39.093Z,77.36
2023-10-28T10:57:39.121Z,77.45
2023-10-28T10:58:39.074Z,77.56
2023-10-28T10:59:39.051Z,77.25
2023-10-28T11:00:39.066Z,77.66
2023-10-28T11:01:39.062Z,77.56
2023-10-28T11:02:39.161Z,76.95
2023-10-28T11:03:44.097Z,77.15
2023-10-28T11:04:39.067Z,77.45
2023-10-28T11:05:38.992Z,77.45
2023-10-28T11:06:38.994Z,77.45
2023-10-28T11:07:38.985Z,77.36
2023-10-28T11:08:38.952Z,77.36
2023-10-28T11:09:38.946Z,77.45
2023-10-28T11:10:39.005Z,77.36
2023-10-28T11:11:38.916Z,77.36
2023-10-28T11:12:38.908Z,77.36
2023-10-28T11:13:38.908Z,78.47
2023-10-28T11:14:43.922Z,78.17
2023-10-28T11:15:38.976Z,77.97
2023-10-28T11:16:38.862Z,77.97
2023-10-28T11:17:38.992Z,79.04
2023-10-28T11:18:38.846Z,78.37
2023-10-28T11:19:38.846Z,78.57
2023-10-28T11:20:38.858Z,78.06
2023-10-28T11:21:38.803Z,78.06
2023-10-28T11:22:38.816Z,78.17
2023-10-28T11:23:38.788Z,78.78
2023-10-28T11:24:38.805Z,79.18
2023-10-28T11:25:43.827Z,79.38
2023-10-28T11:26:38.764Z,79.49
2023-10-28T11:27:38.740Z,80.33
2023-10-28T11:28:38.731Z,81.56
2023-10-28T11:29:38.770Z,82.20
2023-10-28T11:30:38.713Z,82.98
2023-10-28T11:31:38.815Z,83.42
2023-10-28T11:32:38.713Z,83.32
2023-10-28T11:33:38.696Z,83.32
2023-10-28T11:34:38.654Z,83.36
2023-10-28T11:35:38.655Z,83.36
2023-10-28T11:36:43.655Z,83.97
2023-10-28T11:37:38.658Z,83.67
2023-10-28T11:38:41.011Z,83.42
2023-10-28T11:39:38.600Z,82.95
2023-10-28T11:40:38.599Z,83.06
2023-10-28T11:41:38.572Z,83.46
2023-10-28T11:42:38.723Z,84.07
2023-10-28T11:43:38.635Z,84.17
2023-10-28T11:44:41.109Z,83.56
2023-10-28T11:45:38.589Z,83.87
2023-10-28T11:46:38.533Z,83.36
2023-10-28T11:47:43.597Z,83.56
2023-10-28T11:49:38.540Z,83.70
2023-10-28T11:50:38.545Z,84.48
2023-10-28T11:51:38.461Z,85.03
2023-10-28T11:52:38.474Z,85.09
2023-10-28T11:53:38.440Z,84.31
2023-10-28T11:54:38.455Z,84.72
2023-10-28T11:55:38.425Z,85.23
2023-10-28T11:56:38.491Z,85.03
2023-10-28T11:57:38.414Z,85.19
2023-10-28T11:58:43.407Z,85.43
2023-10-28T11:59:38.375Z,84.68
2023-10-28T12:00:38.371Z,84.52
2023-10-28T12:01:38.364Z,84.92
2023-10-28T12:02:38.464Z,85.03
2023-10-28T12:03:38.369Z,85.13
2023-10-28T12:04:38.326Z,85.09
2023-10-28T12:05:38.311Z,85.33
2023-10-28T12:06:38.318Z,85.13
2023-10-28T12:07:38.297Z,85.49
2023-10-28T12:08:38.274Z,84.78
2023-10-28T12:09:43.372Z,85.13
2023-10-28T12:10:38.258Z,85.23
2023-10-28T12:11:38.255Z,85.23
2023-10-28T12:12:38.233Z,84.62
2023-10-28T12:13:38.225Z,84.72
2023-10-28T12:14:39.460Z,84.58
2023-10-28T12:15:38.224Z,84.82
2023-10-28T12:16:38.242Z,84.28
2023-10-28T12:17:38.234Z,84.72
2023-10-28T12:18:38.165Z,84.82
2023-10-28T12:19:38.154Z,84.72
2023-10-28T12:20:43.175Z,84.38
2023-10-28T12:21:38.130Z,84.72
2023-10-28T12:22:38.151Z,85.09
2023-10-28T12:23:38.112Z,84.78
2023-10-28T12:24:38.111Z,84.31
2023-10-28T12:25:38.126Z,84.78
2023-10-28T12:26:38.096Z,84.92
2023-10-28T12:27:38.075Z,85.03
2023-10-28T12:28:38.106Z,85.13
2023-10-28T12:29:38.050Z,85.23
2023-10-28T12:30:38.053Z,84.88
2023-10-28T12:31:43.053Z,85.19
2023-10-28T12:32:38.074Z,85.23
2023-10-28T12:33:39.292Z,85.53
2023-10-28T12:34:38.054Z,85.94
2023-10-28T12:35:45.931Z,86.04
2023-10-28T12:36:37.970Z,85.49
2023-10-28T12:37:37.963Z,85.53
2023-10-28T12:38:37.949Z,86.35
2023-10-28T12:39:37.943Z,87.16
2023-10-28T12:40:37.946Z,88.39
2023-10-28T12:41:38.018Z,89.40
2023-10-28T12:42:42.925Z,90.77
2023-10-28T12:43:37.898Z,91.27
2023-10-28T12:44:37.897Z,91.93
2023-10-28T12:45:37.900Z,92.64
2023-10-28T12:46:37.869Z,92.84
2023-10-28T12:47:37.953Z,92.58
2023-10-28T12:48:37.882Z,92.79
2023-10-28T12:49:37.880Z,92.58
2023-10-28T12:50:37.849Z,92.99
2023-10-28T12:51:40.309Z,92.68
2023-10-28T12:52:37.825Z,93.09
2023-10-28T12:53:42.838Z,93.29
2023-10-28T12:54:37.791Z,94.05
2023-10-28T12:55:37.772Z,94.15
2023-10-28T12:56:37.748Z,94.35
2023-10-28T12:57:37.768Z,94.35
2023-10-28T12:58:37.787Z,94.26
2023-10-28T12:59:37.749Z,94.05
2023-10-28T13:00:37.709Z,93.95
2023-10-28T13:01:37.722Z,94.15
2023-10-28T13:02:37.858Z,94.05
2023-10-28T13:03:37.758Z,94.46
2023-10-28T13:04:42.718Z,94.05
2023-10-28T13:05:37.774Z,93.95
2023-10-28T13:06:37.686Z,93.85
2023-10-28T13:07:37.648Z,93.64
2023-10-28T13:08:37.638Z,94.11
2023-10-28T13:09:37.616Z,94.11
2023-10-28T13:10:37.591Z,94.31
2023-10-28T13:11:37.650Z,93.80
2023-10-28T13:12:37.571Z,93.54
2023-10-28T13:13:37.606Z,93.90
2023-10-28T13:14:37.600Z,94.11
2023-10-28T13:15:42.591Z,93.70
2023-10-28T13:16:37.544Z,93.80
2023-10-28T13:17:37.586Z,93.90
2023-10-28T13:18:37.523Z,93.90
2023-10-28T13:19:37.497Z,94.01
2023-10-28T13:20:37.516Z,93.19
2023-10-28T13:21:37.476Z,93.19
2023-10-28T13:22:37.463Z,93.19
2023-10-28T13:23:37.474Z,93.19
2023-10-28T13:24:37.433Z,93.70
2023-10-28T13:25:37.428Z,93.09
2023-10-28T13:26:42.448Z,93.40
2023-10-28T13:27:37.426Z,94.15
2023-10-28T13:28:37.404Z,93.74
2023-10-28T13:29:37.433Z,93.95
2023-10-28T13:30:37.420Z,94.56
2023-10-28T13:31:37.380Z,94.52
2023-10-28T13:32:48.193Z,94.26
2023-10-28T13:33:37.388Z,94.05
2023-10-28T13:34:37.361Z,94.46
2023-10-28T13:35:37.391Z,93.95
2023-10-28T13:36:37.303Z,94.76
2023-10-28T13:37:42.334Z,94.66
2023-10-28T13:38:37.293Z,94.97
2023-10-28T13:39:37.276Z,94.76
2023-10-28T13:40:37.259Z,94.66
2023-10-28T13:41:37.298Z,95.17
2023-10-28T13:42:37.252Z,94.56
2023-10-28T13:43:37.258Z,94.66
2023-10-28T13:44:37.269Z,94.35
2023-10-28T13:45:37.243Z,95.28
2023-10-28T13:46:37.277Z,95.62
2023-10-28T13:47:37.272Z,95.58
2023-10-28T13:48:42.242Z,95.28
2023-10-28T13:49:37.160Z,95.37
2023-10-28T13:50:37.206Z,95.48
2023-10-28T13:51:37.183Z,95.17
2023-10-28T13:52:37.275Z,94.87
2023-10-28T13:53:37.152Z,95.28
2023-10-28T13:54:37.113Z,94.56
2023-10-28T13:55:37.100Z,94.97
2023-10-28T13:56:37.131Z,95.58
2023-10-28T13:57:37.233Z,95.07
2023-10-28T13:58:37.060Z,94.97
2023-10-28T13:59:42.143Z,94.66
2023-10-28T14:00:37.049Z,94.66
2023-10-28T14:01:37.145Z,95.28
2023-10-28T14:02:37.099Z,94.87
2023-10-28T14:03:37.082Z,94.97
2023-10-28T14:04:36.989Z,94.97
2023-10-28T14:05:37.009Z,95.28
2023-10-28T14:06:36.970Z,95.17
2023-10-28T14:07:36.956Z,95.17
2023-10-28T14:08:37.014Z,94.87
2023-10-28T14:09:36.952Z,94.26
2023-10-28T14:10:41.980Z,94.46
2023-10-28T14:11:36.973Z,94.92
2023-10-28T14:12:36.899Z,94.87
2023-10-28T14:13:36.906Z,94.76
2023-10-28T14:14:36.920Z,94.87
2023-10-28T14:15:36.867Z,94.35
2023-10-28T14:16:36.905Z,94.26
2023-10-28T14:17:36.962Z,94.15
2023-10-28T14:18:36.837Z,94.46
2023-10-28T14:19:36.850Z,94.46
2023-10-28T14:20:36.842Z,95.17
2023-10-28T14:21:41.833Z,94.46
2023-10-28T14:22:36.818Z,93.74
2023-10-28T14:23:36.855Z,93.85
2023-10-28T14:24:36.784Z,93.24
2023-10-28T14:25:36.760Z,93.33
2023-10-28T14:26:36.846Z,93.74
2023-10-28T14:27:36.807Z,93.64
2023-10-28T14:28:36.764Z,94.05
2023-10-28T14:29:36.811Z,94.05
2023-10-28T14:30:36.693Z,93.74
2023-10-28T14:31:36.695Z,93.80
2023-10-28T14:32:41.768Z,94.26
2023-10-28T14:33:36.693Z,93.33
2023-10-28T14:34:36.662Z,93.24
2023-10-28T14:35:36.722Z,93.03
2023-10-28T14:36:36.626Z,92.83
2023-10-28T14:37:36.629Z,92.83
2023-10-28T14:38:36.652Z,92.63
2023-10-28T14:39:36.638Z,92.72
2023-10-28T14:40:36.585Z,93.13
2023-10-28T14:41:36.623Z,93.33
2023-10-28T14:42:36.577Z,93.44
2023-10-28T14:43:41.576Z,93.64
2023-10-28T14:44:36.625Z,93.33
2023-10-28T14:45:36.566Z,93.13
2023-10-28T14:46:36.529Z,92.72
2023-10-28T14:47:36.618Z,93.85
2023-10-28T14:48:36.521Z,93.95
2023-10-28T14:49:36.501Z,94.15
2023-10-28T14:50:36.582Z,93.95
2023-10-28T14:51:36.503Z,94.46
2023-10-28T14:52:36.460Z,94.05
2023-10-28T14:53:36.496Z,94.66
2023-10-28T14:54:41.453Z,94.46
2023-10-28T14:55:36.437Z,94.35
2023-10-28T14:56:36.472Z,94.91
2023-10-28T14:57:41.445Z,94.26
2023-10-28T14:58:36.409Z,93.79
2023-10-28T14:59:47.805Z,94.87
2023-10-28T15:00:36.477Z,94.35
2023-10-28T15:01:36.373Z,94.56
2023-10-28T15:02:36.373Z,94.76
2023-10-28T15:03:36.412Z,94.56
2023-10-28T15:04:36.416Z,94.91
2023-10-28T15:05:41.414Z,94.15
2023-10-28T15:06:36.324Z,94.56
2023-10-28T15:07:36.312Z,94.50
2023-10-28T15:08:36.294Z,94.76
2023-10-28T15:09:36.280Z,94.35
2023-10-28T15:10:36.267Z,95.28
2023-10-28T15:11:36.432Z,95.58
2023-10-28T15:12:36.240Z,95.73
2023-10-28T15:13:36.231Z,95.32
2023-10-28T15:14:36.279Z,95.62
2023-10-28T15:15:36.226Z,95.21
2023-10-28T15:16:41.268Z,95.58
2023-10-28T15:17:36.329Z,95.93
2023-10-28T15:18:36.176Z,95.93
2023-10-28T15:19:36.200Z,95.83
2023-10-28T15:20:36.271Z,96.14
2023-10-28T15:21:36.137Z,96.34
2023-10-28T15:22:36.131Z,96.34
2023-10-28T15:23:36.192Z,96.23
2023-10-28T15:24:36.120Z,96.64
2023-10-28T15:25:36.126Z,96.44
2023-10-28T15:26:36.115Z,96.34
2023-10-28T15:27:41.098Z,96.69
2023-10-28T15:28:36.086Z,96.95
2023-10-28T15:29:36.116Z,97.20
2023-10-28T15:30:36.047Z,96.95
2023-10-28T15:31:36.083Z,97.46
2023-10-28T15:32:36.140Z,97.40
2023-10-28T15:33:36.016Z,97.71
2023-10-28T15:34:36.598Z,97.36
2023-10-28T15:35:36.032Z,97.40
2023-10-28T15:36:35.976Z,97.71
2023-10-28T15:37:35.960Z,97.50
2023-10-28T15:38:41.099Z,98.38
2023-10-28T15:39:35.964Z,98.11
2023-10-28T15:40:35.943Z,97.77
2023-10-28T15:41:35.955Z,98.02
2023-10-28T15:42:35.903Z,97.87
2023-10-28T15:43:35.981Z,97.61
2023-10-28T15:44:35.954Z,97.87
2023-10-28T15:45:35.887Z,97.40
2023-10-28T15:46:35.854Z,97.46
2023-10-28T15:47:36.105Z,97.71
2023-10-28T15:48:35.844Z,97.61
2023-10-28T15:49:40.837Z,97.36
2023-10-28T15:50:35.910Z,97.25
2023-10-28T15:51:35.820Z,97.46
2023-10-28T15:52:36.112Z,97.71
2023-10-28T15:53:35.813Z,97.40
2023-10-28T15:54:35.778Z,97.81
2023-10-28T15:55:35.754Z,97.61
2023-10-28T15:56:35.749Z,97.50
2023-10-28T15:57:35.919Z,97.61
2023-10-28T15:58:35.711Z,96.95
2023-10-28T15:59:35.785Z,96.69
2023-10-28T16:00:40.756Z,96.64
2023-10-28T16:01:35.756Z,97.00
2023-10-28T16:02:35.844Z,97.05
2023-10-28T16:03:35.744Z,96.69
2023-10-28T16:04:35.654Z,96.95
2023-10-28T16:05:35.712Z,96.89
2023-10-28T16:06:35.633Z,97.00
2023-10-28T16:07:35.630Z,96.89
2023-10-28T16:08:35.633Z,96.69
2023-10-28T16:09:35.624Z,96.59
2023-10-28T16:10:35.589Z,96.38
2023-10-28T16:11:40.680Z,96.59
2023-10-28T16:12:35.803Z,96.28
2023-10-28T16:13:35.553Z,96.59
2023-10-28T16:14:35.596Z,96.79
2023-10-28T16:15:35.644Z,96.84
2023-10-28T16:16:35.569Z,96.89
2023-10-28T16:17:35.645Z,97.05
2023-10-28T16:18:35.510Z,97.50
2023-10-28T16:19:35.484Z,97.30
2023-10-28T16:20:35.555Z,97.81
2023-10-28T16:21:35.530Z,97.50
2023-10-28T16:22:40.494Z,97.00
2023-10-28T16:23:35.486Z,96.89
2023-10-28T16:24:35.446Z,97.36
2023-10-28T16:25:35.441Z,97.81
2023-10-28T16:26:35.462Z,97.91
2023-10-28T16:27:35.398Z,97.71
2023-10-28T16:28:35.384Z,97.46
2023-10-28T16:29:35.457Z,97.09
2023-10-28T16:30:35.394Z,96.69
2023-10-28T16:31:35.376Z,96.38
2023-10-28T16:32:35.479Z,96.69
2023-10-28T16:33:40.433Z,96.79
2023-10-28T16:34:35.388Z,96.54
2023-10-28T16:35:35.373Z,96.69
2023-10-28T16:36:35.290Z,96.79
2023-10-28T16:37:35.293Z,97.05
2023-10-28T16:38:35.294Z,96.89
2023-10-28T16:39:35.276Z,96.48
2023-10-28T16:40:35.274Z,96.48
2023-10-28T16:41:35.264Z,96.23
2023-10-28T16:42:35.230Z,96.38
2023-10-28T16:43:35.232Z,96.64
2023-10-28T16:44:40.271Z,96.64
2023-10-28T16:45:35.222Z,96.89
2023-10-28T16:46:35.186Z,96.84
2023-10-28T16:47:35.267Z,96.38
2023-10-28T16:48:35.180Z,96.69
2023-10-28T16:49:35.206Z,96.59
2023-10-28T16:50:35.370Z,96.59
2023-10-28T16:51:35.179Z,95.83
2023-10-28T16:52:35.123Z,95.87
2023-10-28T16:53:35.355Z,95.83
2023-10-28T16:54:35.103Z,95.62
2023-10-28T16:55:40.209Z,95.62
2023-10-28T16:56:35.087Z,95.42
2023-10-28T16:57:35.065Z,95.57
2023-10-28T16:58:35.059Z,94.71
2023-10-28T16:59:35.115Z,94.81
2023-10-28T17:00:35.032Z,94.81
2023-10-28T17:01:35.068Z,94.50
2023-10-28T17:02:35.043Z,94.91
2023-10-28T17:03:35.058Z,93.99
2023-10-28T17:04:35.017Z,94.30
2023-10-28T17:05:35.015Z,94.50
2023-10-28T17:06:39.989Z,93.79
2023-10-28T17:07:34.958Z,93.38
2023-10-28T17:08:34.987Z,93.38
2023-10-28T17:09:34.934Z,93.28
2023-10-28T17:10:34.912Z,92.87
2023-10-28T17:11:34.966Z,92.77
2023-10-28T17:12:34.907Z,92.77
2023-10-28T17:13:34.889Z,92.77
2023-10-28T17:14:34.879Z,92.77
2023-10-28T17:15:34.866Z,92.16
2023-10-28T17:16:34.854Z,92.67
2023-10-28T17:17:40.028Z,91.96
2023-10-28T17:18:34.876Z,92.26
2023-10-28T17:19:34.858Z,91.55
2023-10-28T17:20:34.860Z,92.57
2023-10-28T17:21:34.804Z,92.67
2023-10-28T17:22:34.788Z,92.57
2023-10-28T17:23:34.799Z,91.40
2023-10-28T17:24:34.833Z,92.36
2023-10-28T17:25:34.740Z,92.01
2023-10-28T17:26:34.830Z,91.03
2023-10-28T17:27:34.748Z,90.99
2023-10-28T17:28:39.744Z,90.18
2023-10-28T17:29:34.737Z,90.32
2023-10-28T17:30:34.692Z,90.38
2023-10-28T17:31:34.735Z,90.48
2023-10-28T17:32:34.744Z,90.59
2023-10-28T17:33:34.651Z,90.89
2023-10-28T17:34:34.649Z,90.59
2023-10-28T17:35:34.685Z,90.48
2023-10-28T17:36:34.631Z,90.59
2023-10-28T17:37:34.636Z,90.28
2023-10-28T17:38:34.629Z,90.59
2023-10-28T17:39:39.609Z,90.38
2023-10-28T17:40:34.601Z,90.48
2023-10-28T17:41:34.685Z,89.77
2023-10-28T17:42:34.591Z,89.97
2023-10-28T17:43:34.563Z,90.38
2023-10-28T17:44:34.600Z,90.64
2023-10-28T17:45:34.547Z,90.64
2023-10-28T17:46:34.537Z,90.48
2023-10-28T17:47:34.522Z,89.67
2023-10-28T17:48:34.497Z,89.22
2023-10-28T17:49:34.478Z,89.42
2023-10-28T17:50:39.599Z,89.22
2023-10-28T17:51:34.497Z,89.06
2023-10-28T17:52:34.437Z,89.83
2023-10-28T17:53:34.430Z,89.67